Weather at Hilling International Airport

Public forecast

Using degrees Fahrenheit for public forecast. Weather courtesy of forecast.io.

Closest aviation weather report (METAR) to Hilling International Airport

Closest report is University Park Airport, 21.2 nm (39.3 km) N. Retrieved 2021/07/28 16:53 UTC (14 minutes ago):

KUNV 281653Z 00000KT 10SM SCT031 BKN040 BKN049 24/18 A3005

Closest aviation forecast (TAF) to Hilling International Airport

Closest forecast is University Park Airport, 21.2 nm (39.3 km) N. Retrieved 2021/07/28 12:22 UTC (5 hours ago):

TAF KUNV 281120Z 2812/2912 29005KT P6SM BKN080 FM281700 32004KT P6SM VCSH BKN050 FM290000 01002KT P6SM BKN100